Time;durP1;ratioP1;P1;durP2;ratioP2;P2;SDS_P1;SDS_P2;PMS_P1;PMS_P2;Temp;Humidity;BMP_temperature;BMP_pressure;BME280_temperature;BME280_humidity;BME280_pressure;Samples;Min_cycle;Max_cycle;Signal;HPM_P1;HPM_P2
2021/10/29 00:01:58;;;;;;;23.25;20.48;;;12.10;64.70;;;;;;4993350;28;20459;-71
2021/10/29 00:04:24;;;;;;;29.83;20.73;;;12.00;64.60;;;;;;4993367;28;20054;-71
2021/10/29 00:06:49;;;;;;;27.15;21.80;;;12.00;65.00;;;;;;4993486;28;20096;-71
2021/10/29 00:09:15;;;;;;;25.25;20.98;;;11.90;64.70;;;;;;5008691;28;20490;-70
2021/10/29 00:11:41;;;;;;;29.45;21.30;;;11.90;64.80;;;;;;4993422;28;20093;-71
2021/10/29 00:14:07;;;;;;;24.88;20.95;;;11.80;65.00;;;;;;4993464;28;20022;-71
2021/10/29 00:16:32;;;;;;;24.23;20.70;;;11.80;65.10;;;;;;4993464;28;20034;-71
2021/10/29 00:18:58;;;;;;;28.45;21.15;;;11.70;65.30;;;;;;4993475;28;20022;-71
2021/10/29 00:21:24;;;;;;;25.35;20.42;;;11.70;65.40;;;;;;4993451;28;20101;-71
2021/10/29 00:23:49;;;;;;;24.30;20.20;;;11.60;65.30;;;;;;4993502;28;20033;-71
2021/10/29 00:26:15;;;;;;;24.45;19.58;;;11.60;65.60;;;;;;4993062;28;20072;-70
2021/10/29 00:28:41;;;;;;;29.48;21.25;;;11.50;65.60;;;;;;4992442;28;20041;-71
2021/10/29 00:31:07;;;;;;;23.70;20.00;;;11.50;66.00;;;;;;4993034;28;20529;-70
2021/10/29 00:33:33;;;;;;;24.40;20.00;;;11.30;66.50;;;;;;4993600;28;20113;-71
2021/10/29 00:35:58;;;;;;;27.02;20.40;;;11.30;66.40;;;;;;4993037;28;20455;-71
2021/10/29 00:38:25;;;;;;;25.65;20.55;;;11.20;66.70;;;;;;4993303;28;20033;-71
2021/10/29 00:40:51;;;;;;;31.75;21.48;;;11.10;66.40;;;;;;4993210;28;20101;-70
2021/10/29 00:43:17;;;;;;;25.75;20.67;;;11.00;66.20;;;;;;4993018;28;20101;-71
2021/10/29 00:45:42;;;;;;;28.83;22.02;;;11.00;66.00;;;;;;4992722;28;20026;-71
2021/10/29 00:48:08;;;;;;;27.50;20.92;;;11.00;66.00;;;;;;4992946;28;20034;-71
2021/10/29 00:50:35;;;;;;;25.83;21.20;;;11.00;65.60;;;;;;4993316;28;20418;-71
2021/10/29 00:53:01;;;;;;;25.60;20.63;;;11.00;65.90;;;;;;4993393;28;20399;-71
2021/10/29 00:55:27;;;;;;;22.08;18.10;;;10.90;65.60;;;;;;4993060;28;20027;-71
2021/10/29 00:57:52;;;;;;;23.10;19.85;;;10.90;65.20;;;;;;4992537;28;20062;-71
2021/10/29 01:00:19;;;;;;;21.27;18.25;;;11.00;65.30;;;;;;4994111;28;20023;-71
2021/10/29 01:02:44;;;;;;;25.73;18.23;;;11.10;64.20;;;;;;4994129;28;20030;-71
2021/10/29 01:05:10;;;;;;;21.77;18.35;;;11.20;63.50;;;;;;4995108;28;20050;-71
2021/10/29 01:07:37;;;;;;;23.40;18.95;;;11.30;62.50;;;;;;4996439;28;20034;-70
2021/10/29 01:10:04;;;;;;;28.15;19.67;;;11.40;62.10;;;;;;4996328;28;20031;-71
2021/10/29 01:12:30;;;;;;;25.38;18.05;;;11.50;61.90;;;;;;4996085;28;20026;-75
2021/10/29 01:14:57;;;;;;;21.48;18.35;;;11.50;61.20;;;;;;4995526;28;20390;-70
2021/10/29 01:17:23;;;;;;;22.73;18.67;;;11.60;61.20;;;;;;4996409;28;20022;-71
2021/10/29 01:19:56;;;;;;;22.38;18.55;;;11.60;60.80;;;;;;4996666;28;20379;-71
2021/10/29 01:22:23;;;;;;;21.48;18.95;;;11.60;60.70;;;;;;4996255;28;20037;-71
2021/10/29 01:24:49;;;;;;;24.35;18.85;;;11.70;60.90;;;;;;4996323;28;20025;-71
2021/10/29 01:27:16;;;;;;;21.27;18.98;;;11.70;60.60;;;;;;4996070;28;20046;-71
2021/10/29 01:29:44;;;;;;;22.35;18.38;;;11.70;60.40;;;;;;4995744;28;20022;-70
2021/10/29 01:32:10;;;;;;;21.75;18.73;;;11.80;60.10;;;;;;4995782;28;20076;-71
2021/10/29 01:34:37;;;;;;;20.20;17.85;;;11.80;60.10;;;;;;4996113;28;20082;-71
2021/10/29 01:37:09;;;;;;;20.83;18.33;;;11.80;59.80;;;;;;4995817;28;20028;-71
2021/10/29 01:39:37;;;;;;;22.55;17.75;;;11.80;59.80;;;;;;4996094;28;20066;-71
2021/10/29 01:42:03;;;;;;;21.88;19.02;;;11.90;59.90;;;;;;4995653;28;20050;-71
2021/10/29 01:44:29;;;;;;;23.08;19.48;;;11.80;59.70;;;;;;4995632;28;20054;-71
2021/10/29 01:46:54;;;;;;;26.08;19.00;;;11.80;59.80;;;;;;4995482;28;20513;-70
2021/10/29 01:49:21;;;;;;;26.60;19.65;;;11.80;60.00;;;;;;4995809;28;20368;-71
2021/10/29 01:51:46;;;;;;;26.17;19.77;;;11.80;59.70;;;;;;4995579;28;20391;-71
2021/10/29 01:54:12;;;;;;;22.30;19.88;;;11.80;59.90;;;;;;4995833;28;20034;-71
2021/10/29 01:56:38;;;;;;;27.42;19.15;;;11.80;59.90;;;;;;4995755;28;20034;-70
2021/10/29 01:59:04;;;;;;;25.45;18.88;;;11.80;60.10;;;;;;4995186;28;20113;-71
2021/10/29 02:01:31;;;;;;;21.90;19.50;;;11.90;59.50;;;;;;4995757;28;20057;-70
2021/10/29 02:03:56;;;;;;;23.88;19.17;;;11.80;58.90;;;;;;4995350;28;20133;-71
2021/10/29 02:06:22;;;;;;;22.00;18.95;;;11.80;59.10;;;;;;4995640;28;20113;-70
2021/10/29 02:08:48;;;;;;;20.10;17.98;;;11.80;59.00;;;;;;4995213;28;20034;-71
2021/10/29 02:11:14;;;;;;;24.55;19.00;;;11.80;58.50;;;;;;4995540;28;20410;-71
2021/10/29 02:13:40;;;;;;;21.45;18.75;;;11.80;58.50;;;;;;4995537;28;20026;-71
2021/10/29 02:16:06;;;;;;;25.00;19.25;;;11.80;58.50;;;;;;4995517;28;20076;-71
2021/10/29 02:18:32;;;;;;;23.05;19.35;;;11.90;58.30;;;;;;4995621;28;20030;-70
2021/10/29 02:20:58;;;;;;;22.38;19.05;;;11.80;58.50;;;;;;4994947;28;20039;-71
2021/10/29 02:23:24;;;;;;;23.52;20.27;;;11.80;58.70;;;;;;4995452;28;20022;-70
2021/10/29 02:25:50;;;;;;;21.63;18.63;;;11.80;58.80;;;;;;4995295;28;20505;-71
2021/10/29 02:28:18;;;;;;;22.55;19.17;;;11.90;58.60;;;;;;4995316;28;20542;-71
2021/10/29 02:30:45;;;;;;;23.25;19.27;;;11.90;58.30;;;;;;4995198;28;20030;-71
2021/10/29 02:33:11;;;;;;;23.85;18.88;;;11.90;58.10;;;;;;4993956;28;20026;-71
2021/10/29 02:35:37;;;;;;;23.95;19.45;;;11.80;58.10;;;;;;4994265;28;20098;-71
2021/10/29 02:38:03;;;;;;;25.27;18.17;;;11.80;58.20;;;;;;4994956;28;20034;-71
2021/10/29 02:40:29;;;;;;;25.35;19.92;;;11.90;58.00;;;;;;4995003;28;20054;-71
2021/10/29 02:42:55;;;;;;;23.48;19.63;;;11.90;58.10;;;;;;4994916;28;20064;-71
2021/10/29 02:45:21;;;;;;;21.20;18.42;;;11.90;58.00;;;;;;4994666;28;20374;-71
2021/10/29 02:47:48;;;;;;;24.40;18.98;;;11.80;57.90;;;;;;4994590;28;20081;-71
2021/10/29 02:50:19;;;;;;;23.48;18.30;;;11.80;58.00;;;;;;4994537;28;20057;-72
2021/10/29 02:52:45;;;;;;;22.73;18.90;;;11.80;58.10;;;;;;4994076;28;20034;-71
2021/10/29 02:55:12;;;;;;;21.55;18.90;;;11.70;58.50;;;;;;4992928;28;20033;-71
2021/10/29 02:57:38;;;;;;;23.08;18.50;;;11.70;58.30;;;;;;4993198;28;20018;-71
2021/10/29 03:00:07;;;;;;;22.90;18.30;;;11.70;58.20;;;;;;4993353;28;20034;-71
2021/10/29 03:02:33;;;;;;;24.13;18.17;;;11.70;58.10;;;;;;4994349;28;20482;-70
2021/10/29 03:05:00;;;;;;;24.13;19.05;;;11.70;57.90;;;;;;4994073;28;20503;-71
2021/10/29 03:07:26;;;;;;;23.83;18.77;;;11.70;57.80;;;;;;4994181;28;20049;-71
2021/10/29 03:09:52;;;;;;;24.27;17.95;;;11.70;58.10;;;;;;4992936;28;20027;-71
2021/10/29 03:12:18;;;;;;;21.45;17.67;;;11.70;58.20;;;;;;4994658;28;20022;-71
2021/10/29 03:14:44;;;;;;;22.17;17.75;;;11.70;58.40;;;;;;4994333;28;20467;-71
2021/10/29 03:17:10;;;;;;;19.48;17.45;;;11.70;58.70;;;;;;4993969;28;20030;-72
2021/10/29 03:19:35;;;;;;;26.02;17.58;;;11.60;58.40;;;;;;4991976;28;20026;-71
2021/10/29 03:22:02;;;;;;;19.90;17.52;;;11.60;59.00;;;;;;4992987;28;20026;-71
2021/10/29 03:24:27;;;;;;;21.02;17.52;;;11.50;58.50;;;;;;4992534;28;20033;-71
2021/10/29 03:26:53;;;;;;;19.45;16.80;;;11.50;58.80;;;;;;4994013;28;20042;-71
2021/10/29 03:29:19;;;;;;;20.30;17.58;;;11.50;58.10;;;;;;4992503;28;20057;-71
2021/10/29 03:31:44;;;;;;;19.27;16.30;;;11.50;58.20;;;;;;4993668;28;20030;-71
2021/10/29 03:34:10;;;;;;;20.90;16.50;;;11.50;57.80;;;;;;4993548;28;20471;-70
2021/10/29 03:36:37;;;;;;;21.30;16.90;;;11.50;57.90;;;;;;4993882;28;20030;-71
2021/10/29 03:39:07;;;;;;;20.83;17.30;;;11.50;57.90;;;;;;4993906;28;20541;-71
2021/10/29 03:41:36;;;;;;;22.08;17.67;;;11.50;58.10;;;;;;4993463;28;20072;-71
2021/10/29 03:46:29;;;;;;;21.15;17.50;;;11.50;57.60;;;;;;4993707;28;20035;-71
2021/10/29 03:49:09;;;;;;;23.33;18.05;;;11.50;58.20;;;;;;4993208;28;20458;-71
2021/10/29 03:51:39;;;;;;;20.02;16.75;;;11.50;57.80;;;;;;4992022;28;20014;-71
2021/10/29 03:56:40;;;;;;;23.95;17.73;;;11.60;57.50;;;;;;4993321;28;20042;-71
2021/10/29 03:59:06;;;;;;;24.00;17.65;;;11.60;57.60;;;;;;4992594;28;20022;-71
2021/10/29 04:01:33;;;;;;;23.08;18.58;;;11.50;57.70;;;;;;4993576;28;20026;-71
2021/10/29 04:03:59;;;;;;;21.48;18.08;;;11.50;58.20;;;;;;4992928;28;20042;-71
2021/10/29 04:06:24;;;;;;;26.73;18.42;;;11.50;58.30;;;;;;4992296;28;20045;-71
2021/10/29 04:08:50;;;;;;;23.48;18.77;;;11.40;58.90;;;;;;4993301;28;20034;-71
2021/10/29 04:11:21;;;;;;;21.55;17.40;;;11.30;58.50;;;;;;4993461;28;20033;-71
2021/10/29 04:13:47;;;;;;;22.55;18.13;;;11.30;58.10;;;;;;4993961;28;20026;-71
2021/10/29 04:16:14;;;;;;;26.13;18.50;;;11.20;58.10;;;;;;4993366;28;20038;-72
2021/10/29 04:18:39;;;;;;;21.27;18.15;;;11.20;57.90;;;;;;4992049;28;20467;-71
2021/10/29 04:21:05;;;;;;;23.55;17.80;;;11.30;58.10;;;;;;4993386;28;20026;-71
2021/10/29 04:23:31;;;;;;;22.25;18.02;;;11.30;57.50;;;;;;4992999;28;20045;-72
2021/10/29 04:25:57;;;;;;;23.75;18.90;;;11.30;57.80;;;;;;4992935;28;20034;-71
2021/10/29 04:28:24;;;;;;;27.08;18.85;;;11.30;57.40;;;;;;4993166;28;20165;-71
2021/10/29 04:30:52;;;;;;;23.88;18.60;;;11.30;57.30;;;;;;4992137;28;20023;-71
2021/10/29 04:33:18;;;;;;;25.98;18.10;;;11.40;57.60;;;;;;4996869;28;20475;-71
2021/10/29 04:35:46;;;;;;;25.27;20.05;;;11.30;57.10;;;;;;4996365;28;20026;-71
2021/10/29 04:38:12;;;;;;;26.33;21.00;;;11.30;57.20;;;;;;4996336;28;20027;-71
2021/10/29 04:40:40;;;;;;;27.75;21.08;;;11.40;57.40;;;;;;4996831;28;20102;-71
2021/10/29 04:43:09;;;;;;;28.10;20.60;;;11.40;57.50;;;;;;4997132;28;20105;-71
2021/10/29 04:45:36;;;;;;;26.48;20.77;;;11.40;57.60;;;;;;4997004;28;20027;-71
2021/10/29 04:48:03;;;;;;;28.08;20.85;;;11.40;57.30;;;;;;4996818;28;20049;-71
2021/10/29 04:50:29;;;;;;;26.35;21.40;;;11.40;57.50;;;;;;4996971;28;20029;-71
2021/10/29 04:52:55;;;;;;;25.15;20.73;;;11.40;57.60;;;;;;4996512;28;20037;-71
2021/10/29 04:55:21;;;;;;;27.55;21.58;;;11.40;57.60;;;;;;4995997;28;20030;-71
2021/10/29 04:57:47;;;;;;;26.30;20.17;;;11.40;57.70;;;;;;4995207;28;20390;-71
2021/10/29 05:00:14;;;;;;;25.00;20.90;;;11.40;57.70;;;;;;4996710;28;20036;-71
2021/10/29 05:02:40;;;;;;;25.92;20.92;;;11.40;57.90;;;;;;4996484;28;20027;-70
2021/10/29 05:05:07;;;;;;;26.50;20.42;;;11.30;57.90;;;;;;4995803;28;20055;-71
2021/10/29 05:07:34;;;;;;;26.52;21.00;;;11.30;58.00;;;;;;4995842;28;20505;-71
2021/10/29 05:10:00;;;;;;;27.13;20.70;;;11.30;58.30;;;;;;4996599;28;20403;-71
2021/10/29 05:12:26;;;;;;;29.20;22.35;;;11.30;58.40;;;;;;4996495;28;20030;-71
2021/10/29 05:14:53;;;;;;;29.27;22.38;;;11.30;58.40;;;;;;4996514;28;20025;-71
2021/10/29 05:17:18;;;;;;;31.13;21.92;;;11.20;58.60;;;;;;4995698;28;20026;-71
2021/10/29 05:19:44;;;;;;;32.72;22.40;;;11.20;58.70;;;;;;4995166;28;20018;-71
2021/10/29 05:22:10;;;;;;;28.80;23.13;;;11.20;58.80;;;;;;4996103;28;20483;-72
2021/10/29 05:24:35;;;;;;;30.40;22.20;;;11.20;59.10;;;;;;4996201;28;20022;-71
2021/10/29 05:27:01;;;;;;;27.52;21.88;;;11.20;59.00;;;;;;4996114;28;20109;-71
2021/10/29 05:29:26;;;;;;;27.58;23.65;;;11.20;59.10;;;;;;4996245;28;20467;-71
2021/10/29 05:31:52;;;;;;;28.08;22.33;;;11.20;59.00;;;;;;4996252;28;20033;-71
2021/10/29 05:34:19;;;;;;;29.98;23.67;;;11.20;59.20;;;;;;4996326;28;20056;-71
2021/10/29 05:36:47;;;;;;;28.63;23.05;;;11.20;59.20;;;;;;4995985;28;20042;-70
2021/10/29 05:39:14;;;;;;;27.75;22.73;;;11.20;59.10;;;;;;4995952;28;20027;-71
2021/10/29 05:41:47;;;;;;;28.10;23.83;;;11.20;59.30;;;;;;4996048;28;20041;-72
2021/10/29 05:44:12;;;;;;;27.55;22.88;;;11.20;59.60;;;;;;4995474;28;20023;-71
2021/10/29 05:46:41;;;;;;;26.75;21.90;;;11.20;59.60;;;;;;4995908;28;20471;-71
2021/10/29 05:49:10;;;;;;;26.65;21.48;;;11.20;59.50;;;;;;4995810;28;20053;-71
2021/10/29 05:51:42;;;;;;;27.42;21.38;;;11.10;59.60;;;;;;4995733;28;20105;-71
2021/10/29 05:54:36;;;;;;;29.70;21.25;;;11.10;59.90;;;;;;4996101;28;20097;-71
2021/10/29 05:56:56;;;;;;;30.77;21.48;;;11.10;59.80;;;;;;4995642;28;20026;-71
2021/10/29 05:59:23;;;;;;;26.27;21.08;;;11.00;60.10;;;;;;4994528;28;20084;-72
2021/10/29 06:01:49;;;;;;;27.38;20.73;;;11.10;60.20;;;;;;4994884;28;20023;-72
2021/10/29 06:04:14;;;;;;;30.75;22.50;;;11.00;60.20;;;;;;4994201;28;20052;-71
2021/10/29 06:06:40;;;;;;;23.17;20.25;;;11.00;60.80;;;;;;4993959;28;20044;-71
2021/10/29 06:09:06;;;;;;;30.80;22.83;;;10.90;61.00;;;;;;4994916;28;20022;-72
2021/10/29 06:11:32;;;;;;;33.65;21.65;;;10.90;61.50;;;;;;4994719;28;20022;-72
2021/10/29 06:13:58;;;;;;;29.20;21.30;;;10.90;62.50;;;;;;4993432;28;20081;-71
2021/10/29 06:16:24;;;;;;;31.65;21.30;;;10.80;62.70;;;;;;4994661;28;20026;-72
2021/10/29 06:18:49;;;;;;;23.42;19.95;;;10.80;63.10;;;;;;4994378;28;20097;-72
2021/10/29 06:21:20;;;;;;;29.73;21.60;;;10.70;63.30;;;;;;4984255;28;20037;-72
2021/10/29 06:24:28;;;;;;;34.50;20.85;;;10.70;63.80;;;;;;5013787;28;20490;-72
2021/10/29 06:29:35;;;;;;;28.75;21.30;;;10.70;63.90;;;;;;5008557;28;20426;-71
2021/10/29 06:32:06;;;;;;;29.13;22.10;;;10.70;63.30;;;;;;5010928;28;20038;-71
2021/10/29 06:34:36;;;;;;;29.95;22.30;;;10.80;62.90;;;;;;5003367;28;20030;-74
2021/10/29 06:37:04;;;;;;;31.60;22.55;;;10.80;62.20;;;;;;5014602;28;20429;-73
2021/10/29 06:39:30;;;;;;;30.40;23.15;;;10.80;62.30;;;;;;5013970;28;20065;-74
2021/10/29 06:41:57;;;;;;;32.50;23.08;;;10.90;62.00;;;;;;5013378;28;20026;-72
2021/10/29 06:44:39;;;;;;;31.63;23.70;;;11.00;61.50;;;;;;5013401;28;20057;-71
2021/10/29 07:00:45;;;;;;;29.50;23.90;;;11.40;60.80;;;;;;5011231;28;20035;-71
2021/10/29 07:41:25;;;;;;;29.55;24.45;;;12.10;59.00;;;;;;5013294;28;20030;-71
2021/10/29 07:43:54;;;;;;;28.63;23.50;;;12.20;58.90;;;;;;5013291;28;20030;-71
2021/10/29 07:46:20;;;;;;;29.88;24.80;;;12.30;58.50;;;;;;5013084;28;20040;-71
2021/10/29 07:48:47;;;;;;;29.67;24.85;;;12.30;58.40;;;;;;5013013;28;20101;-71
2021/10/29 07:51:14;;;;;;;28.65;24.27;;;12.40;58.60;;;;;;5012955;28;20030;-71
2021/10/29 07:53:40;;;;;;;31.02;24.70;;;12.40;59.00;;;;;;5012825;28;20037;-71
2021/10/29 07:56:07;;;;;;;32.13;23.90;;;12.50;59.50;;;;;;5013036;28;20076;-71
2021/10/29 07:58:34;;;;;;;29.27;24.23;;;12.50;59.30;;;;;;5012708;28;20100;-72
2021/10/29 08:01:00;;;;;;;32.60;25.40;;;12.60;58.80;;;;;;5013393;28;20041;-71
2021/10/29 08:03:27;;;;;;;29.83;22.95;;;12.60;58.60;;;;;;5013407;28;20026;-71
2021/10/29 08:05:53;;;;;;;28.77;23.17;;;12.70;58.50;;;;;;5013034;28;20030;-71
2021/10/29 08:08:20;;;;;;;28.10;23.83;;;12.70;58.00;;;;;;5013487;28;20037;-72
2021/10/29 08:10:47;;;;;;;27.67;23.27;;;12.80;57.90;;;;;;5013438;28;20033;-72
2021/10/29 08:13:12;;;;;;;26.60;22.88;;;12.80;57.60;;;;;;5013440;28;20033;-71
2021/10/29 08:15:39;;;;;;;31.58;23.17;;;12.90;58.20;;;;;;5012200;28;20041;-71
2021/10/29 08:18:07;;;;;;;30.13;24.30;;;12.90;57.60;;;;;;5013167;28;20030;-71
2021/10/29 08:20:34;;;;;;;30.88;23.80;;;13.00;58.40;;;;;;5013017;28;20100;-72
2021/10/29 08:23:01;;;;;;;31.45;24.05;;;13.10;58.30;;;;;;5011370;28;20405;-71
2021/10/29 08:25:27;;;;;;;32.97;23.88;;;13.10;57.70;;;;;;5012784;28;20026;-71
2021/10/29 08:27:55;;;;;;;30.05;23.38;;;13.10;58.20;;;;;;5016748;28;20056;-72
2021/10/29 08:30:23;;;;;;;28.77;23.58;;;;;;;;;;5032507;28;20080;-71
2021/10/29 08:32:50;;;;;;;29.40;23.02;;;13.20;56.70;;;;;;5032640;28;20378;-73
2021/10/29 08:35:18;;;;;;;28.17;22.98;;;13.30;57.10;;;;;;5032490;28;20029;-72
2021/10/29 08:37:45;;;;;;;32.75;22.45;;;13.30;57.40;;;;;;5031782;28;20430;-71
2021/10/29 08:40:12;;;;;;;26.42;23.63;;;13.40;57.50;;;;;;5015604;28;20105;-73
2021/10/29 08:42:39;;;;;;;25.95;22.75;;;13.50;63.90;;;;;;5009714;28;20034;-72
2021/10/29 08:45:06;;;;;;;27.67;23.30;;;13.50;62.90;;;;;;5010171;28;20041;-72
2021/10/29 08:47:35;;;;;;;30.73;23.90;;;13.60;66.20;;;;;;5011459;28;20494;-72
2021/10/29 08:50:02;;;;;;;31.23;22.88;;;13.60;65.00;;;;;;5012644;28;20029;-71
2021/10/29 08:52:28;;;;;;;26.45;23.00;;;13.60;57.20;;;;;;5012880;28;20474;-70
2021/10/29 08:54:54;;;;;;;29.33;24.50;;;13.70;56.80;;;;;;5011435;28;20033;-70
2021/10/29 08:57:22;;;;;;;28.88;23.77;;;13.70;56.80;;;;;;5010161;28;20022;-70
2021/10/29 08:59:51;;;;;;;32.50;23.50;;;13.80;57.10;;;;;;5010539;28;20068;-70
2021/10/29 09:02:39;;;;;;;29.20;23.25;;;13.80;57.00;;;;;;5010534;28;20022;-70
2021/10/29 09:05:14;;;;;;;27.02;22.25;;;13.90;56.00;;;;;;5012125;28;20088;-70
2021/10/29 09:07:58;;;;;;;29.85;22.55;;;14.00;56.00;;;;;;5012707;28;20044;-70
2021/10/29 09:16:33;;;;;;;30.02;23.92;;;14.20;54.80;;;;;;5011858;28;20033;-70
2021/10/29 09:32:47;;;;;;;26.55;22.35;;;14.60;54.10;;;;;;5016034;28;20132;-71
2021/10/29 09:35:17;;;;;;;26.85;21.45;;;14.80;55.00;;;;;;5015495;28;20026;-70
2021/10/29 09:37:59;;;;;;;28.38;22.40;;;14.80;58.20;;;;;;5015646;28;20545;-70
2021/10/29 09:40:25;;;;;;;29.90;23.53;;;;;;;;;;5014271;28;20026;-71
2021/10/29 09:42:53;;;;;;;25.60;20.33;;;15.00;75.20;;;;;;5013034;28;20398;-71
2021/10/29 09:45:24;;;;;;;25.52;21.50;;;14.90;54.20;;;;;;5013151;28;20060;-71
2021/10/29 09:48:08;;;;;;;28.40;22.70;;;15.00;53.90;;;;;;5013679;28;20498;-70
2021/10/29 09:50:36;;;;;;;23.88;20.90;;;15.00;54.10;;;;;;5012774;28;20065;-70
2021/10/29 09:53:10;;;;;;;23.05;19.90;;;;;;;;;;5013146;28;20029;-70
2021/10/29 09:55:58;;;;;;;28.17;21.17;;;15.10;52.50;;;;;;5015357;28;20029;-70
2021/10/29 09:58:24;;;;;;;23.13;20.63;;;15.20;52.20;;;;;;5015652;28;20124;-70
2021/10/29 10:00:51;;;;;;;27.02;21.23;;;15.30;51.50;;;;;;5015464;28;20050;-70
2021/10/29 10:03:21;;;;;;;24.42;20.13;;;15.30;51.80;;;;;;5015175;28;20080;-70
2021/10/29 10:05:50;;;;;;;24.38;20.33;;;15.40;51.70;;;;;;5015365;28;20034;-70
2021/10/29 10:08:19;;;;;;;26.13;20.50;;;15.50;51.90;;;;;;5015268;28;20042;-69
2021/10/29 10:10:49;;;;;;;23.38;20.25;;;15.60;51.70;;;;;;5015345;28;20076;-70
2021/10/29 10:13:16;;;;;;;24.15;19.80;;;15.60;51.90;;;;;;5015316;28;20022;-70
2021/10/29 10:15:42;;;;;;;25.73;20.23;;;15.60;51.40;;;;;;5015234;28;20105;-70
2021/10/29 10:18:08;;;;;;;25.83;20.67;;;15.70;51.00;;;;;;5015076;28;20026;-70
2021/10/29 10:20:34;;;;;;;26.42;20.67;;;15.80;51.00;;;;;;5014939;28;20378;-70
2021/10/29 10:23:03;;;;;;;24.00;20.42;;;15.80;51.20;;;;;;5014948;28;20033;-70
2021/10/29 10:25:43;;;;;;;25.83;20.30;;;15.90;51.20;;;;;;5014962;28;20065;-70
2021/10/29 10:47:01;;;;;;;25.67;18.77;;;16.50;49.60;;;;;;5014449;28;20046;-72
2021/10/29 10:49:48;;;;;;;27.05;19.48;;;16.70;61.70;;;;;;5014449;28;20026;-72
2021/10/29 10:54:51;;;;;;;23.88;21.25;;;16.80;62.90;;;;;;5014326;28;20107;-72
2021/10/29 11:10:44;;;;;;;21.92;19.65;;;;;;;;;;5014347;28;20121;-72
2021/10/29 11:13:11;;;;;;;26.60;19.35;;;;;;;;;;5014166;28;20068;-72
2021/10/29 11:15:38;;;;;;;23.15;20.50;;;17.00;76.80;;;;;;5013932;28;20048;-72
2021/10/29 11:18:27;;;;;;;24.45;19.65;;;;;;;;;;5014069;28;20030;-72
2021/10/29 11:20:54;;;;;;;24.42;20.50;;;17.30;58.70;;;;;;5014018;28;20018;-72
2021/10/29 11:23:32;;;;;;;22.23;19.13;;;17.30;58.20;;;;;;5012020;28;20025;-72
2021/10/29 11:26:05;;;;;;;24.88;18.90;;;17.40;55.00;;;;;;5010795;28;20641;-72
2021/10/29 11:28:46;;;;;;;22.95;19.02;;;17.40;66.50;;;;;;5011122;28;20052;-72
2021/10/29 11:31:18;;;;;;;21.88;19.33;;;17.50;68.10;;;;;;5013408;28;20089;-72
2021/10/29 11:33:46;;;;;;;23.20;18.75;;;17.50;66.00;;;;;;5013754;28;20041;-72
2021/10/29 11:36:17;;;;;;;25.50;20.38;;;17.40;62.90;;;;;;5012436;28;20529;-72
2021/10/29 11:38:47;;;;;;;22.77;19.35;;;17.60;60.40;;;;;;5013045;28;20129;-72
2021/10/29 11:41:16;;;;;;;21.05;18.70;;;17.70;59.30;;;;;;5012766;28;20026;-72
2021/10/29 11:43:42;;;;;;;20.55;18.38;;;17.70;58.30;;;;;;5013483;28;20478;-73
2021/10/29 11:46:11;;;;;;;24.23;19.45;;;17.70;57.20;;;;;;5013063;28;20022;-72
2021/10/29 11:48:44;;;;;;;24.30;19.50;;;;;;;;;;5012492;28;20520;-72
2021/10/29 11:51:11;;;;;;;21.75;18.27;;;;;;;;;;5011734;28;20033;-72
2021/10/29 11:53:57;;;;;;;20.73;17.08;;;17.70;47.10;;;;;;5011962;28;20108;-72
2021/10/29 11:56:32;;;;;;;23.25;19.17;;;;;;;;;;5013116;28;20022;-72
2021/10/29 11:59:09;;;;;;;20.85;18.40;;;;;;;;;;5013138;28;20026;-72
2021/10/29 12:01:40;;;;;;;21.08;18.30;;;;;;;;;;5013290;28;20377;-72
2021/10/29 12:09:37;;;;;;;24.50;18.90;;;18.00;47.60;;;;;;5013187;28;20091;-72
2021/10/29 12:12:16;;;;;;;22.92;18.80;;;18.10;51.10;;;;;;5012616;28;20022;-72
2021/10/29 12:14:45;;;;;;;25.45;21.75;;;18.20;53.40;;;;;;5011234;28;20100;-73
2021/10/29 12:17:22;;;;;;;28.80;21.60;;;18.20;53.70;;;;;;5012786;28;20342;-73
2021/10/29 12:19:52;;;;;;;21.05;18.65;;;18.30;55.90;;;;;;5013198;28;20026;-72
2021/10/29 12:25:03;;;;;;;24.75;18.90;;;18.30;63.50;;;;;;5012778;28;20018;-72
2021/10/29 13:01:38;;;;;;;21.63;18.42;;;18.30;47.10;;;;;;4974743;28;20026;-72
2021/10/29 13:04:11;;;;;;;23.38;18.30;;;18.40;47.40;;;;;;4974926;28;20047;-72
2021/10/29 13:06:41;;;;;;;25.73;18.05;;;18.30;47.10;;;;;;4996977;28;20045;-72
2021/10/29 13:09:27;;;;;;;22.67;17.42;;;18.30;47.40;;;;;;5015957;28;20537;-72
2021/10/29 13:12:02;;;;;;;21.13;17.70;;;18.30;46.80;;;;;;5015777;28;20030;-73
2021/10/29 13:17:00;;;;;;;21.35;18.55;;;18.30;47.30;;;;;;5015812;28;20141;-72
2021/10/29 13:37:54;;;;;;;19.70;17.15;;;18.10;47.30;;;;;;4996467;28;20110;-73
2021/10/29 14:16:15;;;;;;;21.85;17.42;;;17.90;48.90;;;;;;4995254;28;20391;-75
2021/10/29 14:31:13;;;;;;;26.25;19.65;;;17.50;51.00;;;;;;4995405;28;20530;-72
2021/10/29 14:33:47;;;;;;;25.80;19.80;;;17.40;51.00;;;;;;4995573;28;20514;-75
2021/10/29 14:36:13;;;;;;;22.23;17.85;;;17.40;51.30;;;;;;4995541;28;20101;-71
2021/10/29 14:41:14;;;;;;;21.77;19.38;;;17.30;51.40;;;;;;4995140;28;20096;-72
2021/10/29 14:43:45;;;;;;;24.42;20.95;;;17.30;51.50;;;;;;4995244;28;20022;-72
2021/10/29 15:28:59;;;;;;;28.23;22.90;;;16.70;59.40;;;;;;5013366;28;20125;-77
2021/10/29 15:44:42;;;;;;;31.92;24.15;;;16.40;63.80;;;;;;5013543;28;20110;-72
2021/10/29 15:47:10;;;;;;;33.97;24.05;;;16.30;77.70;;;;;;5013110;28;20026;-74
2021/10/29 15:49:38;;;;;;;35.00;25.23;;;16.30;55.50;;;;;;5028395;28;20099;-72
2021/10/29 15:52:12;;;;;;;27.95;24.75;;;16.30;68.80;;;;;;5013242;28;20018;-72
2021/10/29 15:54:43;;;;;;;29.45;23.80;;;16.20;56.60;;;;;;5011990;28;20030;-72
2021/10/29 15:57:09;;;;;;;33.13;25.08;;;16.10;68.00;;;;;;5013427;28;20018;-72
2021/10/29 16:18:16;;;;;;;37.95;30.90;;;15.80;56.60;;;;;;4993657;28;20085;-74
2021/10/29 16:20:42;;;;;;;34.28;28.67;;;15.70;54.20;;;;;;4993555;28;20022;-75
2021/10/29 16:23:10;;;;;;;42.95;29.92;;;15.60;54.80;;;;;;4993548;28;20102;-74
2021/10/29 16:25:37;;;;;;;39.13;30.70;;;15.60;55.20;;;;;;4993560;28;20109;-75
2021/10/29 16:28:10;;;;;;;34.38;29.77;;;15.50;55.40;;;;;;4995500;28;20069;-73
2021/10/29 16:30:36;;;;;;;35.45;29.77;;;15.40;55.60;;;;;;4997423;28;20426;-74
2021/10/29 16:35:29;;;;;;;39.38;32.35;;;;;;;;;;4997351;28;20026;-75
2021/10/29 16:37:55;;;;;;;38.13;33.72;;;15.30;55.20;;;;;;4997212;28;20165;-75
2021/10/29 16:40:20;;;;;;;39.22;33.17;;;15.20;55.90;;;;;;4996659;28;20026;-74
2021/10/29 16:42:47;;;;;;;37.80;29.20;;;15.10;56.00;;;;;;4997405;28;20034;-76
2021/10/29 16:45:16;;;;;;;35.55;27.92;;;15.10;55.40;;;;;;4997228;28;20026;-74
2021/10/29 16:47:41;;;;;;;35.47;27.42;;;15.10;55.30;;;;;;4996965;28;20034;-75
2021/10/29 16:50:10;;;;;;;34.88;28.15;;;15.10;55.20;;;;;;4997339;28;20034;-74
2021/10/29 16:52:36;;;;;;;32.03;27.63;;;15.10;54.90;;;;;;4997180;28;20030;-75
2021/10/29 16:55:03;;;;;;;31.70;27.73;;;15.10;55.00;;;;;;4997004;28;20038;-73
2021/10/29 16:57:29;;;;;;;32.45;28.00;;;;;;;;;;4996750;28;20089;-73
2021/10/29 16:59:55;;;;;;;39.33;30.40;;;15.00;54.60;;;;;;4997155;28;20026;-73
2021/10/29 17:02:20;;;;;;;40.38;32.92;;;14.90;54.70;;;;;;4996663;28;20030;-74
2021/10/29 17:04:46;;;;;;;40.25;32.58;;;14.90;55.40;;;;;;4996759;28;20461;-74
2021/10/29 17:07:11;;;;;;;37.38;30.45;;;14.90;55.60;;;;;;4995415;28;20038;-74
2021/10/29 17:09:37;;;;;;;35.05;27.70;;;14.90;55.80;;;;;;4996617;28;20014;-73
2021/10/29 17:12:03;;;;;;;35.88;26.65;;;14.80;55.60;;;;;;4996249;28;20106;-74
2021/10/29 17:14:31;;;;;;;31.60;26.40;;;14.80;55.20;;;;;;4996077;28;20383;-74
2021/10/29 17:16:57;;;;;;;38.15;28.38;;;14.80;55.10;;;;;;4994909;28;20483;-71
2021/10/29 17:19:23;;;;;;;33.95;27.88;;;14.80;55.30;;;;;;4996335;28;20080;-75
2021/10/29 17:21:49;;;;;;;62.28;44.03;;;14.80;55.30;;;;;;4996555;28;20402;-73
2021/10/29 17:24:14;;;;;;;50.65;37.15;;;14.70;55.20;;;;;;4996647;28;20035;-73
2021/10/29 17:26:40;;;;;;;59.60;43.95;;;14.80;60.50;;;;;;4996222;28;20034;-81
2021/10/29 17:29:06;;;;;;;35.38;27.90;;;14.80;61.60;;;;;;4995598;28;20165;-75
2021/10/29 17:31:32;;;;;;;36.17;29.80;;;14.60;55.90;;;;;;4994174;28;20483;-74
2021/10/29 17:33:57;;;;;;;38.63;29.30;;;14.60;55.90;;;;;;4994841;28;20026;-75
2021/10/29 17:36:25;;;;;;;35.85;28.02;;;14.60;55.60;;;;;;4996816;28;20025;-77
2021/10/29 17:38:50;;;;;;;35.75;28.45;;;14.60;55.30;;;;;;4995252;28;20383;-71
2021/10/29 17:41:17;;;;;;;32.47;28.98;;;;;;;;;;4996170;28;20023;-72